메인 페이지
METAR-TAF:

METAR-TAF

공항 :

호세 호아킨데 올메도 국제공항

과야킬, 에콰도르

위도: 02-09S, 경도: 079-53W, 고도: 4m

현재 날씨관측

예보는 59분 전, 23:06시(UTC)에 발표되었습니다.
남서13kt
온도 28°C
습도 89%
기압 1009 hPa
시정: 3000m
고도 2600ft 상공 구름 보통
고도 10000ft 상공 구름 보통
소나기

METAR: SEGU 252306Z 22013KT 9999 3000N SHRA SCT026 SCT100 28/26 Q1009 BECMG AT 2315Z NSW RMK A2981

시각: 19:05 (00:05 UTC)

예보

예보는 1 시간 55분 전, 22:10시(UTC)에 발표되었습니다.
예보 대상 시간: 26일 00시부터 26일 24시까지 (UTC)
남서5kt
시정 10km 이상
고도 2300ft 상공 구름 보통
고도 10000ft 상공 구름 보통
일시적
26일 04시부터 26일 06시까지 (UTC)
시정: 6000m
고도 1000ft 상공 구름 조금
고도 2300ft 상공 구름 많음
고도 9000ft 상공 흐림
전환 중
26일 06시부터 26일 08시까지 (UTC)
고도 800ft 상공 구름 조금
고도 2000ft 상공 구름 많음
고도 9000ft 상공 구름 많음
전환 중
26일 12시부터 26일 14시까지 (UTC)
동북동5kt
고도 2300ft 상공 구름 보통
고도 10000ft 상공 구름 많음

TAF: SEGU 252210Z 2600/2624 22005KT 9999 SCT023 SCT100 TEMPO 2604/2606 6000 RA FEW010 BKN023 OVC090 BECMG 2606/2608 FEW008 BKN020 BKN090 BECMG 2612/2614 06005KT SCT023 BKN100 TX33/2619Z TN26/2610Z

4,000개 이상의 공항 관측 자료 및 예보 (METAR 및 TAF 보고).

지도상에서 검색 가능한 기상관측소가 노란 점과 빨간 점으로 표시되어 있습니다.

기상관측소 명을 보려면 표시 위로 마우스를 이동하세요.

날씨 관측과 예보를 보려면 클릭하세요.

지도 변경 : 확대하려면 엑스 표시가 있는 녹색 버튼, 축소하려면 빼기 표시가 있는 녹색 버튼, 다음 페이지의 지도를 보려면 녹색 화살표를 클릭하세요.


METAR-TAF: